EZY2216 EGKK-LKPR
Flight info
| Callsign | EZY2216 |
|---|---|
| Flight time | 1h 35m |
| Altitude | 37000 |
| Route | FRANE M604 GASBA M197 REDFA DCT TACHA DCT MISGO DCT EKSAK DCT SWALM DCT GASKA DCT TONSU Z35 ODOMO DCT LOMKI |
| Aircraft | A21N/M-SDE2E3FGHIRWXY/LB1 |
Departure
| Time | 2026-05-04 10:27 |
|---|---|
| Airport | London Gatwick Airport (EGKK) |
Arrival
| Time | 2026-05-04 12:02 |
|---|---|
| Airport | Václav Havel Airport Prague (LKPR) |
| Time | Latitude | Longitude | Altitude | Speed | Heading |
|---|---|---|---|---|---|
| 2026-05-04 09:51 | 51.15547 | -0.17869 | 216 ft | 0 kts | 346° |
| 2026-05-04 09:55 | 51.15560 | -0.17812 | 220 ft | 0 kts | 347° |
| 2026-05-04 10:14 | 51.15543 | -0.17805 | 215 ft | 4 kts | 339° |
| 2026-05-04 10:14 | 51.15519 | -0.17785 | 220 ft | 4 kts | 312° |
| 2026-05-04 10:16 | 51.15509 | -0.17755 | 215 ft | 0 kts | 268° |
| 2026-05-04 10:16 | 51.15509 | -0.17757 | 215 ft | 2 kts | 267° |
| 2026-05-04 10:16 | 51.15497 | -0.17836 | 212 ft | 13 kts | 253° |
| 2026-05-04 10:17 | 51.15475 | -0.18001 | 217 ft | 16 kts | 259° |
| 2026-05-04 10:17 | 51.15448 | -0.18182 | 216 ft | 17 kts | 255° |
| 2026-05-04 10:19 | 51.15118 | -0.18814 | 213 ft | 15 kts | 256° |
| 2026-05-04 10:19 | 51.15098 | -0.18972 | 218 ft | 15 kts | 259° |
| 2026-05-04 10:19 | 51.15075 | -0.19136 | 214 ft | 15 kts | 257° |
| 2026-05-04 10:19 | 51.15051 | -0.19305 | 215 ft | 16 kts | 257° |
| 2026-05-04 10:20 | 51.15030 | -0.19477 | 214 ft | 16 kts | 257° |
| 2026-05-04 10:20 | 51.15003 | -0.19654 | 210 ft | 17 kts | 257° |
| 2026-05-04 10:20 | 51.14978 | -0.19837 | 209 ft | 17 kts | 259° |
| 2026-05-04 10:20 | 51.14953 | -0.20030 | 215 ft | 18 kts | 258° |
| 2026-05-04 10:21 | 51.14926 | -0.20222 | 215 ft | 19 kts | 257° |
| 2026-05-04 10:21 | 51.14899 | -0.20421 | 216 ft | 19 kts | 257° |
| 2026-05-04 10:21 | 51.14869 | -0.20629 | 208 ft | 19 kts | 257° |
| 2026-05-04 10:21 | 51.14840 | -0.20842 | 214 ft | 20 kts | 258° |
| 2026-05-04 10:22 | 51.14807 | -0.21091 | 207 ft | 1 kts | 258° |
| 2026-05-04 10:22 | 51.14800 | -0.21132 | 211 ft | 5 kts | 251° |
| 2026-05-04 10:22 | 51.14777 | -0.21229 | 209 ft | 13 kts | 254° |
| 2026-05-04 10:23 | 51.14737 | -0.21385 | 213 ft | 17 kts | 205° |
| 2026-05-04 10:23 | 51.14637 | -0.21332 | 213 ft | 12 kts | 160° |
| 2026-05-04 10:25 | 51.14621 | -0.21325 | 208 ft | 0 kts | 169° |
| 2026-05-04 10:25 | 51.14609 | -0.21321 | 208 ft | 3 kts | 168° |
| 2026-05-04 10:25 | 51.14577 | -0.21304 | 209 ft | 7 kts | 156° |
| 2026-05-04 10:25 | 51.14533 | -0.21235 | 211 ft | 12 kts | 116° |
| 2026-05-04 10:26 | 51.14525 | -0.21088 | 211 ft | 15 kts | 79° |
| 2026-05-04 10:26 | 51.14592 | -0.20610 | 215 ft | 76 kts | 76° |
| 2026-05-04 10:26 | 51.14759 | -0.19432 | 213 ft | 143 kts | 78° |
| 2026-05-04 10:26 | 51.15001 | -0.17670 | 473 ft | 168 kts | 76° |
| 2026-05-04 10:27 | 51.15257 | -0.15841 | 1118 ft | 173 kts | 76° |
| 2026-05-04 10:27 | 51.15538 | -0.13914 | 1561 ft | 187 kts | 76° |
| 2026-05-04 10:27 | 51.15831 | -0.11874 | 2127 ft | 193 kts | 78° |
| 2026-05-04 10:27 | 51.16127 | -0.09666 | 2399 ft | 214 kts | 78° |
| 2026-05-04 10:28 | 51.16458 | -0.07190 | 2578 ft | 242 kts | 78° |
| 2026-05-04 10:28 | 51.16790 | -0.04517 | 3128 ft | 252 kts | 83° |
| 2026-05-04 10:28 | 51.16876 | -0.01812 | 3806 ft | 256 kts | 90° |
| 2026-05-04 10:28 | 51.16842 | 0.01054 | 4434 ft | 263 kts | 91° |
| 2026-05-04 10:29 | 51.16781 | 0.04050 | 4869 ft | 280 kts | 92° |
| 2026-05-04 10:29 | 51.16714 | 0.07279 | 4955 ft | 301 kts | 92° |
| 2026-05-04 10:29 | 51.16650 | 0.10521 | 4973 ft | 280 kts | 92° |
| 2026-05-04 10:29 | 51.16592 | 0.13516 | 5125 ft | 265 kts | 92° |
| 2026-05-04 10:30 | 51.16569 | 0.16412 | 5671 ft | 266 kts | 91° |
| 2026-05-04 10:30 | 51.16574 | 0.19397 | 6491 ft | 270 kts | 88° |
| 2026-05-04 10:30 | 51.16862 | 0.22335 | 7262 ft | 275 kts | 73° |
| 2026-05-04 10:30 | 51.17775 | 0.25084 | 8044 ft | 282 kts | 52° |
| 2026-05-04 10:31 | 51.19085 | 0.27317 | 8657 ft | 287 kts | 42° |
| 2026-05-04 10:31 | 51.20662 | 0.29323 | 9275 ft | 290 kts | 36° |
| 2026-05-04 10:32 | 51.32142 | 0.41471 | 12445 ft | 371 kts | 34° |
| 2026-05-04 10:33 | 51.34275 | 0.43839 | 13040 ft | 373 kts | 34° |
| 2026-05-04 10:33 | 51.36431 | 0.46241 | 13650 ft | 377 kts | 35° |
| 2026-05-04 10:33 | 51.38568 | 0.48628 | 14207 ft | 381 kts | 34° |
| 2026-05-04 10:33 | 51.40747 | 0.51062 | 14762 ft | 385 kts | 34° |
| 2026-05-04 10:34 | 51.42956 | 0.53529 | 15333 ft | 388 kts | 34° |
| 2026-05-04 10:34 | 51.45181 | 0.56023 | 15918 ft | 391 kts | 34° |
| 2026-05-04 10:34 | 51.47417 | 0.58532 | 16504 ft | 394 kts | 35° |
| 2026-05-04 10:34 | 51.49671 | 0.61065 | 17103 ft | 398 kts | 35° |
| 2026-05-04 10:35 | 51.51951 | 0.63630 | 17724 ft | 401 kts | 35° |
| 2026-05-04 10:35 | 51.54246 | 0.66214 | 18324 ft | 405 kts | 35° |
| 2026-05-04 10:35 | 51.56633 | 0.68646 | 18885 ft | 408 kts | 27° |
| 2026-05-04 10:35 | 51.59261 | 0.70387 | 19445 ft | 411 kts | 18° |
| 2026-05-04 10:36 | 51.62007 | 0.71765 | 20015 ft | 414 kts | 15° |
| 2026-05-04 10:36 | 51.64797 | 0.72949 | 20602 ft | 417 kts | 14° |
| 2026-05-04 10:36 | 51.67527 | 0.74548 | 21180 ft | 421 kts | 26° |
| 2026-05-04 10:36 | 51.69932 | 0.77079 | 21752 ft | 423 kts | 41° |
| 2026-05-04 10:37 | 51.71857 | 0.80703 | 22394 ft | 424 kts | 57° |
| 2026-05-04 10:37 | 51.73298 | 0.84839 | 23017 ft | 425 kts | 65° |
| 2026-05-04 10:37 | 51.74481 | 0.89235 | 23662 ft | 425 kts | 69° |
| 2026-05-04 10:37 | 51.75519 | 0.93699 | 24200 ft | 424 kts | 71° |
| 2026-05-04 10:39 | 51.81591 | 1.20200 | 27665 ft | 411 kts | 72° |
| 2026-05-04 10:39 | 51.82606 | 1.24434 | 28200 ft | 410 kts | 72° |
| 2026-05-04 10:39 | 51.83642 | 1.28771 | 28394 ft | 417 kts | 72° |
| 2026-05-04 10:40 | 51.84695 | 1.33196 | 28543 ft | 425 kts | 72° |
| 2026-05-04 10:40 | 51.85764 | 1.37701 | 28680 ft | 433 kts | 72° |
| 2026-05-04 10:40 | 51.86853 | 1.42295 | 28840 ft | 440 kts | 73° |
| 2026-05-04 10:40 | 51.87956 | 1.46961 | 28952 ft | 447 kts | 72° |
| 2026-05-04 10:41 | 51.89075 | 1.51703 | 29091 ft | 454 kts | 72° |
| 2026-05-04 10:41 | 51.90211 | 1.56520 | 29232 ft | 461 kts | 72° |
| 2026-05-04 10:41 | 51.91362 | 1.61413 | 29360 ft | 468 kts | 72° |
| 2026-05-04 10:41 | 51.92512 | 1.66316 | 29500 ft | 474 kts | 72° |
| 2026-05-04 10:42 | 51.93687 | 1.71332 | 29633 ft | 480 kts | 72° |
| 2026-05-04 10:42 | 51.94879 | 1.76437 | 29774 ft | 486 kts | 73° |
| 2026-05-04 10:42 | 51.96077 | 1.81573 | 30035 ft | 489 kts | 73° |
| 2026-05-04 10:42 | 51.97283 | 1.86755 | 30357 ft | 489 kts | 73° |
| 2026-05-04 10:43 | 51.98481 | 1.91911 | 30763 ft | 486 kts | 72° |
| 2026-05-04 10:44 | 52.06224 | 2.25603 | 33187 ft | 474 kts | 71° |
| 2026-05-04 10:45 | 52.07362 | 2.30604 | 33527 ft | 473 kts | 71° |
| 2026-05-04 10:45 | 52.08503 | 2.35635 | 33867 ft | 471 kts | 71° |
| 2026-05-04 10:45 | 52.09631 | 2.40618 | 34168 ft | 470 kts | 71° |
| 2026-05-04 10:45 | 52.10757 | 2.45602 | 34402 ft | 469 kts | 71° |
| 2026-05-04 10:46 | 52.11856 | 2.50610 | 34424 ft | 474 kts | 73° |
| 2026-05-04 10:46 | 52.13865 | 2.60892 | 34630 ft | 477 kts | 75° |
| 2026-05-04 10:46 | 52.14825 | 2.66050 | 34911 ft | 474 kts | 75° |
| 2026-05-04 10:47 | 52.15776 | 2.71190 | 35172 ft | 473 kts | 75° |
| 2026-05-04 10:47 | 52.16727 | 2.76312 | 35385 ft | 472 kts | 75° |
| 2026-05-04 10:47 | 52.17681 | 2.81432 | 35572 ft | 471 kts | 75° |
| 2026-05-04 10:47 | 52.18635 | 2.86536 | 35774 ft | 471 kts | 75° |
| 2026-05-04 10:49 | 52.24604 | 3.22603 | 36804 ft | 466 kts | 91° |
| 2026-05-04 10:49 | 52.24423 | 3.27856 | 36989 ft | 462 kts | 102° |
| 2026-05-04 10:50 | 52.23707 | 3.32935 | 37009 ft | 460 kts | 109° |
| 2026-05-04 10:52 | 52.15187 | 3.72100 | 37008 ft | 460 kts | 113° |
| 2026-05-04 10:52 | 52.13031 | 3.81893 | 37003 ft | 460 kts | 113° |
| 2026-05-04 10:54 | 52.04332 | 4.20952 | 36989 ft | 460 kts | 114° |
| 2026-05-04 10:56 | 51.95497 | 4.59869 | 36975 ft | 459 kts | 115° |
| 2026-05-04 10:57 | 51.93280 | 4.69535 | 36972 ft | 456 kts | 115° |
| 2026-05-04 10:57 | 51.91059 | 4.79158 | 36974 ft | 455 kts | 115° |
| 2026-05-04 10:58 | 51.88857 | 4.88765 | 36972 ft | 455 kts | 115° |
| 2026-05-04 10:58 | 51.86634 | 4.98354 | 36979 ft | 453 kts | 116° |
| 2026-05-04 10:59 | 51.84385 | 5.07879 | 36979 ft | 453 kts | 116° |
| 2026-05-04 10:59 | 51.82136 | 5.17404 | 36978 ft | 453 kts | 116° |
| 2026-05-04 11:00 | 51.79893 | 5.26897 | 36977 ft | 453 kts | 116° |
| 2026-05-04 11:02 | 51.70835 | 5.64880 | 36994 ft | 454 kts | 116° |
| 2026-05-04 11:05 | 51.53476 | 6.35867 | 36987 ft | 456 kts | 117° |
| 2026-05-04 11:06 | 51.51122 | 6.45320 | 36990 ft | 456 kts | 117° |
| 2026-05-04 11:06 | 51.48783 | 6.54671 | 36981 ft | 456 kts | 117° |
| 2026-05-04 11:10 | 51.33172 | 7.21079 | 36963 ft | 458 kts | 114° |
| 2026-05-04 11:12 | 51.24678 | 7.59349 | 36980 ft | 459 kts | 114° |
| 2026-05-04 11:12 | 51.22657 | 7.68514 | 36984 ft | 460 kts | 114° |
| 2026-05-04 11:13 | 51.20515 | 7.78143 | 36968 ft | 460 kts | 115° |
| 2026-05-04 11:13 | 51.18343 | 7.87659 | 36974 ft | 460 kts | 115° |
| 2026-05-04 11:14 | 51.16179 | 7.97153 | 36970 ft | 460 kts | 115° |
| 2026-05-04 11:16 | 51.07424 | 8.35354 | 36986 ft | 460 kts | 115° |
| 2026-05-04 11:16 | 51.05205 | 8.44907 | 36983 ft | 460 kts | 115° |
| 2026-05-04 11:17 | 51.02982 | 8.54438 | 36970 ft | 459 kts | 116° |
| 2026-05-04 11:19 | 50.90469 | 8.82675 | 36983 ft | 448 kts | 133° |
| 2026-05-04 11:19 | 50.88544 | 8.86564 | 36985 ft | 448 kts | 133° |
| 2026-05-04 11:19 | 50.84708 | 8.94344 | 36990 ft | 448 kts | 133° |
| 2026-05-04 11:20 | 50.80874 | 9.02121 | 36991 ft | 448 kts | 133° |
| 2026-05-04 11:20 | 50.77039 | 9.09869 | 36996 ft | 448 kts | 133° |
| 2026-05-04 11:22 | 50.65425 | 9.39246 | 36998 ft | 456 kts | 122° |
| 2026-05-04 11:22 | 50.63955 | 9.43671 | 36999 ft | 456 kts | 122° |
| 2026-05-04 11:23 | 50.61022 | 9.52448 | 37000 ft | 456 kts | 122° |
| 2026-05-04 11:25 | 50.50561 | 9.83276 | 36998 ft | 456 kts | 123° |
| 2026-05-04 11:25 | 50.47573 | 9.92004 | 36999 ft | 457 kts | 123° |
| 2026-05-04 11:27 | 50.33911 | 10.31286 | 36994 ft | 455 kts | 125° |
| 2026-05-04 11:28 | 50.30577 | 10.39708 | 36998 ft | 455 kts | 127° |
| 2026-05-04 11:28 | 50.27191 | 10.48061 | 36998 ft | 454 kts | 127° |
| 2026-05-04 11:29 | 50.23820 | 10.56414 | 37002 ft | 455 kts | 126° |
| 2026-05-04 11:29 | 50.20474 | 10.64736 | 36997 ft | 455 kts | 126° |
| 2026-05-04 11:33 | 49.97850 | 11.21861 | 37008 ft | 459 kts | 112° |
| 2026-05-04 11:33 | 49.97031 | 11.26688 | 37009 ft | 463 kts | 101° |
| 2026-05-04 11:33 | 49.96655 | 11.31659 | 37006 ft | 465 kts | 97° |
| 2026-05-04 11:34 | 49.96263 | 11.41716 | 37002 ft | 467 kts | 95° |
| 2026-05-04 11:34 | 49.96004 | 11.51808 | 37006 ft | 466 kts | 94° |
| 2026-05-04 11:35 | 49.95717 | 11.61820 | 37004 ft | 466 kts | 95° |
| 2026-05-04 11:35 | 49.95387 | 11.71826 | 37004 ft | 466 kts | 95° |
| 2026-05-04 11:36 | 49.95214 | 11.76791 | 36753 ft | 462 kts | 95° |
| 2026-05-04 11:36 | 49.95038 | 11.81753 | 36306 ft | 456 kts | 95° |
| 2026-05-04 11:36 | 49.94862 | 11.86637 | 35833 ft | 451 kts | 95° |
| 2026-05-04 11:36 | 49.94685 | 11.91498 | 35377 ft | 450 kts | 95° |
| 2026-05-04 11:37 | 49.94531 | 11.96402 | 35130 ft | 462 kts | 94° |
| 2026-05-04 11:37 | 49.94410 | 12.01451 | 34875 ft | 469 kts | 94° |
| 2026-05-04 11:37 | 49.94309 | 12.06510 | 34628 ft | 469 kts | 94° |
| 2026-05-04 11:37 | 49.94214 | 12.11579 | 34377 ft | 469 kts | 94° |
| 2026-05-04 11:38 | 49.94117 | 12.16645 | 34130 ft | 470 kts | 94° |
| 2026-05-04 11:38 | 49.94015 | 12.21710 | 33882 ft | 470 kts | 94° |
| 2026-05-04 11:38 | 49.93907 | 12.26776 | 33605 ft | 471 kts | 93° |
| 2026-05-04 11:38 | 49.93799 | 12.31888 | 33330 ft | 471 kts | 94° |
| 2026-05-04 11:39 | 49.93677 | 12.36967 | 33054 ft | 471 kts | 94° |
| 2026-05-04 11:39 | 49.93541 | 12.41982 | 32790 ft | 471 kts | 94° |
| 2026-05-04 11:40 | 49.92632 | 12.72452 | 31235 ft | 473 kts | 94° |
| 2026-05-04 11:41 | 49.92475 | 12.77565 | 30986 ft | 474 kts | 95° |
| 2026-05-04 11:41 | 49.92316 | 12.82602 | 30729 ft | 474 kts | 94° |
| 2026-05-04 11:41 | 49.92154 | 12.87714 | 30475 ft | 475 kts | 94° |
| 2026-05-04 11:41 | 49.91989 | 12.92843 | 30239 ft | 475 kts | 94° |
| 2026-05-04 11:42 | 49.91824 | 12.97918 | 29974 ft | 476 kts | 94° |
| 2026-05-04 11:42 | 49.91655 | 13.03057 | 29699 ft | 477 kts | 94° |
| 2026-05-04 11:42 | 49.91483 | 13.08205 | 29420 ft | 478 kts | 94° |
| 2026-05-04 11:42 | 49.91309 | 13.13360 | 29148 ft | 477 kts | 94° |
| 2026-05-04 11:43 | 49.91135 | 13.18490 | 28869 ft | 475 kts | 94° |
| 2026-05-04 11:43 | 49.90959 | 13.23588 | 28596 ft | 472 kts | 94° |
| 2026-05-04 11:43 | 49.90780 | 13.28654 | 28254 ft | 467 kts | 95° |
| 2026-05-04 11:43 | 49.90601 | 13.33657 | 27648 ft | 461 kts | 95° |
| 2026-05-04 11:44 | 49.90423 | 13.38595 | 27006 ft | 456 kts | 95° |
| 2026-05-04 11:44 | 49.90315 | 13.42546 | 26469 ft | 454 kts | 91° |
| 2026-05-04 11:44 | 49.90639 | 13.47023 | 25876 ft | 452 kts | 76° |
| 2026-05-04 11:44 | 49.91822 | 13.51522 | 25244 ft | 449 kts | 59° |
| 2026-05-04 11:45 | 49.93598 | 13.55505 | 24581 ft | 446 kts | 52° |
| 2026-05-04 11:45 | 49.95466 | 13.59259 | 23949 ft | 444 kts | 52° |
| 2026-05-04 11:45 | 49.97370 | 13.63030 | 23249 ft | 442 kts | 51° |
| 2026-05-04 11:45 | 49.99254 | 13.66764 | 22544 ft | 438 kts | 52° |
| 2026-05-04 11:46 | 50.01093 | 13.70475 | 21919 ft | 433 kts | 52° |
| 2026-05-04 11:46 | 50.02907 | 13.74163 | 21286 ft | 428 kts | 53° |
| 2026-05-04 11:46 | 50.04704 | 13.77824 | 20651 ft | 424 kts | 53° |
| 2026-05-04 11:46 | 50.06459 | 13.81475 | 20016 ft | 420 kts | 56° |
| 2026-05-04 11:47 | 50.07773 | 13.85518 | 19373 ft | 416 kts | 73° |
| 2026-05-04 11:47 | 50.08446 | 13.89832 | 18747 ft | 412 kts | 80° |
| 2026-05-04 11:47 | 50.08949 | 13.94199 | 18086 ft | 409 kts | 81° |
| 2026-05-04 11:47 | 50.09423 | 13.98542 | 17407 ft | 405 kts | 81° |
| 2026-05-04 11:48 | 50.09837 | 14.02317 | 16864 ft | 400 kts | 81° |
| 2026-05-04 11:48 | 50.10306 | 14.06563 | 16274 ft | 395 kts | 81° |
| 2026-05-04 11:48 | 50.10769 | 14.10731 | 15673 ft | 391 kts | 81° |
| 2026-05-04 11:48 | 50.11234 | 14.14904 | 15058 ft | 388 kts | 81° |
| 2026-05-04 11:49 | 50.11685 | 14.18962 | 14470 ft | 383 kts | 81° |
| 2026-05-04 11:49 | 50.12137 | 14.23033 | 13867 ft | 380 kts | 81° |
| 2026-05-04 11:49 | 50.12584 | 14.27059 | 13225 ft | 376 kts | 81° |
| 2026-05-04 11:49 | 50.13026 | 14.31062 | 12627 ft | 371 kts | 82° |
| 2026-05-04 11:50 | 50.13436 | 14.35006 | 12041 ft | 366 kts | 85° |
| 2026-05-04 11:50 | 50.13377 | 14.38906 | 11498 ft | 357 kts | 104° |
| 2026-05-04 11:50 | 50.12498 | 14.42448 | 10952 ft | 348 kts | 124° |
| 2026-05-04 11:50 | 50.11136 | 14.45532 | 10409 ft | 344 kts | 130° |
| 2026-05-04 11:51 | 50.09733 | 14.48391 | 10257 ft | 327 kts | 130° |
| 2026-05-04 11:51 | 50.08373 | 14.51141 | 10185 ft | 309 kts | 131° |
| 2026-05-04 11:51 | 50.07114 | 14.53694 | 10082 ft | 296 kts | 131° |
| 2026-05-04 11:51 | 50.05887 | 14.56193 | 9861 ft | 287 kts | 130° |
| 2026-05-04 11:52 | 50.04675 | 14.58670 | 9401 ft | 288 kts | 130° |
| 2026-05-04 11:52 | 50.03461 | 14.61138 | 9020 ft | 286 kts | 130° |
| 2026-05-04 11:52 | 50.02259 | 14.63588 | 8628 ft | 284 kts | 130° |
| 2026-05-04 11:52 | 50.01060 | 14.66031 | 8247 ft | 283 kts | 130° |
| 2026-05-04 11:53 | 49.99873 | 14.68454 | 7870 ft | 281 kts | 130° |
| 2026-05-04 11:53 | 49.98692 | 14.70861 | 7477 ft | 279 kts | 130° |
| 2026-05-04 11:53 | 49.97415 | 14.73060 | 7116 ft | 275 kts | 143° |
| 2026-05-04 11:53 | 49.95760 | 14.74437 | 6763 ft | 269 kts | 168° |
| 2026-05-04 11:55 | 49.92028 | 14.63222 | 4934 ft | 201 kts | 304° |
| 2026-05-04 11:55 | 49.92872 | 14.61485 | 4491 ft | 203 kts | 305° |
| 2026-05-04 11:56 | 49.93726 | 14.59740 | 4100 ft | 202 kts | 306° |
| 2026-05-04 11:56 | 49.94563 | 14.58032 | 3999 ft | 204 kts | 305° |
| 2026-05-04 11:56 | 49.95419 | 14.56275 | 3981 ft | 204 kts | 306° |
| 2026-05-04 11:56 | 49.96277 | 14.54513 | 3985 ft | 204 kts | 306° |
| 2026-05-04 11:57 | 49.97128 | 14.52762 | 3987 ft | 202 kts | 306° |
| 2026-05-04 11:57 | 49.97974 | 14.51019 | 3985 ft | 202 kts | 306° |
| 2026-05-04 11:57 | 49.98822 | 14.49274 | 3992 ft | 202 kts | 306° |
| 2026-05-04 11:57 | 49.99669 | 14.47526 | 3988 ft | 202 kts | 306° |
| 2026-05-04 11:58 | 50.00500 | 14.45814 | 3986 ft | 194 kts | 305° |
| 2026-05-04 11:58 | 50.01301 | 14.44157 | 3813 ft | 190 kts | 305° |
| 2026-05-04 11:58 | 50.02072 | 14.42569 | 3541 ft | 184 kts | 305° |
| 2026-05-04 11:58 | 50.02844 | 14.40975 | 3275 ft | 185 kts | 306° |
| 2026-05-04 11:59 | 50.03626 | 14.39362 | 3044 ft | 188 kts | 307° |
| 2026-05-04 11:59 | 50.04404 | 14.37758 | 2790 ft | 179 kts | 307° |
| 2026-05-04 11:59 | 50.05114 | 14.36288 | 2574 ft | 163 kts | 308° |
| 2026-05-04 11:59 | 50.05773 | 14.34926 | 2356 ft | 151 kts | 308° |
| 2026-05-04 12:00 | 50.06392 | 14.33659 | 2177 ft | 146 kts | 309° |
| 2026-05-04 12:00 | 50.07027 | 14.32398 | 1954 ft | 148 kts | 309° |
| 2026-05-04 12:00 | 50.07639 | 14.31123 | 1720 ft | 146 kts | 305° |
| 2026-05-04 12:00 | 50.08221 | 14.29860 | 1534 ft | 141 kts | 309° |
| 2026-05-04 12:01 | 50.08807 | 14.28660 | 1353 ft | 138 kts | 308° |
| 2026-05-04 12:01 | 50.09370 | 14.27497 | 1257 ft | 130 kts | 308° |
| 2026-05-04 12:02 | 50.10544 | 14.25725 | 1186 ft | 3 kts | 32° |
| 2026-05-04 12:03 | 50.10577 | 14.25758 | 1186 ft | 8 kts | 34° |
| 2026-05-04 12:03 | 50.10635 | 14.25818 | 1185 ft | 13 kts | 35° |
| 2026-05-04 12:03 | 50.10677 | 14.25865 | 1184 ft | 0 kts | 34° |
| 2026-05-04 12:04 | 50.10691 | 14.25880 | 1183 ft | 6 kts | 35° |
| 2026-05-04 12:04 | 50.10748 | 14.25945 | 1176 ft | 14 kts | 31° |
| 2026-05-04 12:04 | 50.10838 | 14.26030 | 1174 ft | 16 kts | 36° |
| 2026-05-04 12:04 | 50.10878 | 14.26197 | 1171 ft | 19 kts | 109° |
| 2026-05-04 12:05 | 50.10788 | 14.26339 | 1173 ft | 16 kts | 143° |
| 2026-05-04 12:05 | 50.10735 | 14.26392 | 1173 ft | 5 kts | 191° |
| 2026-05-04 12:05 | 50.10711 | 14.26369 | 1179 ft | 0 kts | 213° |
| 2026-05-04 12:06 | 50.10710 | 14.26368 | 1179 ft | 1 kts | 213° |
| 2026-05-04 12:06 | 50.10707 | 14.26365 | 1180 ft | 0 kts | 213° |
| 2026-05-04 12:06 | 50.10706 | 14.26364 | 1181 ft | 0 kts | 213° |